Anta, Peru
Current Conditions -  °F | °C
As of 1:00 PM on Monday 20 Oct 2014 (Local Time) from SPRU Reporting Station
Few Clouds Few Clouds  
Wind Chill: 68°   Ceiling: Unl
Heat Index: 68°   Visibility: 6mi
Dew Point: 61°   Wind: 14mph
Humidity: 78%   Direction: 180°S
Pressure: 29.91"   Gusts: NA
Location:  9.35°S, 77.6°W
Report Text: SPRU 201800Z 18012KT 9999 FEW015 20/16 Q1013 RMK PP000
Loading
Personal Weather Stations






























Interactive Weather Map
Tropical Storm Tracking
New forecast layout! Learn more

10-Day Weather Forecast

Advertisements
Track Severe Weather on mobile